createdAt,value
2017-09-25T00:02:03.381Z,19.35
2017-09-25T00:04:36.304Z,17.50
2017-09-25T00:07:05.670Z,17.95
2017-09-25T00:09:34.344Z,18.48
2017-09-25T00:12:03.312Z,18.00
2017-09-25T00:14:31.789Z,17.23
2017-09-25T00:17:01.281Z,17.33
2017-09-25T00:19:30.564Z,17.45
2017-09-25T00:21:59.878Z,18.52
2017-09-25T00:24:32.994Z,18.73
2017-09-25T00:27:05.120Z,17.80
2017-09-25T00:29:34.112Z,19.80
2017-09-25T00:32:04.847Z,18.75
2017-09-25T00:34:37.746Z,18.73
2017-09-25T00:37:07.133Z,18.50
2017-09-25T00:39:40.093Z,18.85
2017-09-25T00:42:14.856Z,17.62
2017-09-25T00:44:57.138Z,17.95
2017-09-25T00:47:37.005Z,17.50
2017-09-25T00:50:08.721Z,18.33
2017-09-25T00:53:01.942Z,19.35
2017-09-25T00:55:48.037Z,17.35
2017-09-25T00:58:19.504Z,18.83
2017-09-25T01:03:54.219Z,18.85
2017-09-25T01:06:34.358Z,17.87
2017-09-25T01:09:03.913Z,20.08
2017-09-25T01:14:09.658Z,18.35
2017-09-25T01:19:14.771Z,19.80
2017-09-25T01:21:43.076Z,20.52
2017-09-25T01:24:12.144Z,19.02
2017-09-25T01:26:41.143Z,20.75
2017-09-25T01:29:09.351Z,19.75
2017-09-25T01:31:37.603Z,19.92
2017-09-25T01:34:07.311Z,20.42
2017-09-25T01:36:36.720Z,19.37
2017-09-25T01:39:05.688Z,20.00
2017-09-25T01:41:33.961Z,19.87
2017-09-25T01:44:02.195Z,18.90
2017-09-25T01:46:30.420Z,21.90
2017-09-25T01:48:58.657Z,19.77
2017-09-25T01:51:26.902Z,19.25
2017-09-25T01:53:55.145Z,21.25
2017-09-25T01:56:23.377Z,19.35
2017-09-25T01:58:51.618Z,19.17
2017-09-25T02:01:19.854Z,18.87
2017-09-25T02:03:48.094Z,19.35
2017-09-25T02:06:17.128Z,20.02
2017-09-25T02:08:46.863Z,18.15
2017-09-25T02:11:15.972Z,18.45
2017-09-25T02:13:44.341Z,19.42
2017-09-25T02:16:13.333Z,20.05
2017-09-25T02:18:42.408Z,20.83
2017-09-25T02:21:10.696Z,19.37
2017-09-25T02:23:39.708Z,20.17
2017-09-25T02:26:07.957Z,19.20
2017-09-25T02:28:37.015Z,20.15
2017-09-25T02:31:05.244Z,19.87
2017-09-25T02:33:34.004Z,20.70
2017-09-25T02:36:02.207Z,20.73
2017-09-25T02:38:30.404Z,19.45
2017-09-25T02:40:59.521Z,19.23
2017-09-25T02:43:27.718Z,19.48
2017-09-25T02:45:56.072Z,20.08
2017-09-25T02:48:24.315Z,19.27
2017-09-25T02:50:52.521Z,19.52
2017-09-25T02:53:20.825Z,20.12
2017-09-25T02:55:50.204Z,19.42
2017-09-25T02:58:18.416Z,19.65
2017-09-25T03:00:47.411Z,18.35
2017-09-25T03:03:15.595Z,18.12
2017-09-25T03:05:43.848Z,18.45
2017-09-25T03:08:12.871Z,18.45
2017-09-25T03:10:41.209Z,19.73
2017-09-25T03:13:10.244Z,18.95
2017-09-25T03:15:38.485Z,16.48
2017-09-25T03:18:07.463Z,17.73
2017-09-25T03:20:36.564Z,17.83
2017-09-25T03:23:05.590Z,18.95
2017-09-25T03:25:33.871Z,19.20
2017-09-25T03:28:02.124Z,19.00
2017-09-25T03:30:30.425Z,19.55
2017-09-25T03:32:58.690Z,18.60
2017-09-25T03:35:26.895Z,20.05
2017-09-25T03:37:55.576Z,18.95
2017-09-25T03:40:23.826Z,18.50
2017-09-25T03:42:52.069Z,18.62
2017-09-25T03:45:21.110Z,19.17
2017-09-25T03:47:49.489Z,19.70
2017-09-25T03:50:18.225Z,20.40
2017-09-25T03:52:48.402Z,19.00
2017-09-25T03:55:16.713Z,20.00
2017-09-25T03:57:45.851Z,20.67
2017-09-25T04:00:14.188Z,21.60
2017-09-25T04:02:43.254Z,20.27
2017-09-25T04:05:12.622Z,19.45
2017-09-25T04:07:41.783Z,20.10
2017-09-25T04:10:12.057Z,19.58
2017-09-25T04:12:41.166Z,19.55
2017-09-25T04:17:44.107Z,19.65
2017-09-25T04:20:13.160Z,18.25
2017-09-25T04:22:41.445Z,19.90
2017-09-25T04:25:09.671Z,19.73
2017-09-25T04:27:37.958Z,18.37
2017-09-25T04:30:06.169Z,18.67
2017-09-25T04:32:34.400Z,18.73
2017-09-25T04:35:02.680Z,18.37
2017-09-25T04:37:30.932Z,19.80
2017-09-25T04:39:59.172Z,19.95
2017-09-25T04:42:28.315Z,20.35
2017-09-25T04:44:56.585Z,20.08
2017-09-25T04:47:25.240Z,17.60
2017-09-25T04:49:53.560Z,18.05
2017-09-25T04:52:22.817Z,18.35
2017-09-25T04:54:51.832Z,18.58
2017-09-25T04:57:20.072Z,20.77
2017-09-25T04:59:48.350Z,18.92
2017-09-25T05:02:17.361Z,19.48
2017-09-25T05:04:46.356Z,18.70
2017-09-25T05:07:15.349Z,19.48
2017-09-25T05:09:44.364Z,18.77
2017-09-25T05:12:12.642Z,19.00
2017-09-25T05:14:40.935Z,18.65
2017-09-25T05:17:09.216Z,18.80
2017-09-25T05:19:37.521Z,18.42
2017-09-25T05:22:05.748Z,18.23
2017-09-25T05:24:34.420Z,18.20
2017-09-25T05:27:03.490Z,17.75
2017-09-25T05:29:32.499Z,18.37
2017-09-25T05:32:01.299Z,18.17
2017-09-25T05:34:29.758Z,18.00
2017-09-25T05:36:58.776Z,17.35
2017-09-25T05:39:27.365Z,17.98
2017-09-25T05:41:55.611Z,17.65
2017-09-25T05:44:23.882Z,18.40
2017-09-25T05:46:53.888Z,17.98
2017-09-25T05:49:22.947Z,17.60
2017-09-25T05:51:51.176Z,18.37
2017-09-25T05:54:19.402Z,17.75
2017-09-25T05:56:48.095Z,18.12
2017-09-25T05:59:16.305Z,17.80
2017-09-25T06:01:45.294Z,19.55
2017-09-25T06:04:13.808Z,18.62
2017-09-25T06:06:42.406Z,19.55
2017-09-25T06:09:11.469Z,19.00
2017-09-25T06:11:40.411Z,20.70
2017-09-25T06:14:10.846Z,17.45
2017-09-25T06:16:39.199Z,18.12
2017-09-25T06:19:08.625Z,19.08
2017-09-25T06:24:12.055Z,18.60
2017-09-25T06:26:41.082Z,18.00
2017-09-25T06:29:12.491Z,17.80
2017-09-25T06:31:43.433Z,16.70
2017-09-25T06:34:11.755Z,17.90
2017-09-25T06:36:41.736Z,17.67
2017-09-25T06:39:09.987Z,17.50
2017-09-25T06:41:38.625Z,17.98
2017-09-25T06:44:06.838Z,17.20
2017-09-25T06:46:35.108Z,16.45
2017-09-25T06:49:03.302Z,17.17
2017-09-25T06:51:32.291Z,17.35
2017-09-25T06:54:01.272Z,18.30
2017-09-25T06:56:30.272Z,17.12
2017-09-25T06:58:59.242Z,18.40
2017-09-25T07:01:27.437Z,18.90
2017-09-25T07:03:57.311Z,16.80
2017-09-25T07:06:25.524Z,17.10
2017-09-25T07:08:54.509Z,16.15
2017-09-25T07:11:23.058Z,17.02
2017-09-25T07:13:51.349Z,17.35
2017-09-25T07:16:20.243Z,17.10
2017-09-25T07:18:48.553Z,16.40
2017-09-25T07:21:16.811Z,15.65
2017-09-25T07:23:45.528Z,15.50
2017-09-25T07:26:14.529Z,14.70
2017-09-25T07:28:45.941Z,14.77
2017-09-25T07:31:15.490Z,13.40
2017-09-25T07:33:45.059Z,16.23
2017-09-25T07:36:33.032Z,15.90
2017-09-25T07:39:30.397Z,15.32
2017-09-25T07:42:02.960Z,16.08
2017-09-25T07:48:21.729Z,14.30
2017-09-25T07:51:03.929Z,14.52
2017-09-25T07:53:36.933Z,15.07
2017-09-25T07:56:13.459Z,14.05
2017-09-25T07:58:44.527Z,14.68
2017-09-25T08:01:17.693Z,15.27
2017-09-25T08:03:57.270Z,13.90
2017-09-25T08:06:35.311Z,15.77
2017-09-25T08:14:56.348Z,16.20
2017-09-25T08:17:33.991Z,13.88
2017-09-25T08:20:15.621Z,14.10
2017-09-25T08:22:45.865Z,13.68
2017-09-25T08:25:22.670Z,14.80
2017-09-25T08:27:56.865Z,14.45
2017-09-25T08:33:30.374Z,15.68
2017-09-25T08:36:01.744Z,14.45
2017-09-25T08:38:32.065Z,14.40
2017-09-25T08:41:01.507Z,13.65
2017-09-25T08:43:30.248Z,13.90
2017-09-25T08:45:58.986Z,14.80
2017-09-25T08:48:27.617Z,14.00
2017-09-25T08:50:56.759Z,13.90
2017-09-25T08:53:25.325Z,14.00
2017-09-25T08:55:54.699Z,14.63
2017-09-25T08:58:23.055Z,13.13
2017-09-25T09:00:52.596Z,14.35
2017-09-25T09:03:20.928Z,13.98
2017-09-25T09:05:49.399Z,13.80
2017-09-25T09:08:35.473Z,14.77
2017-09-25T09:11:04.899Z,14.05
2017-09-25T09:13:33.899Z,14.10
2017-09-25T09:16:03.741Z,12.77
2017-09-25T09:18:32.608Z,13.02
2017-09-25T09:21:00.874Z,13.73
2017-09-25T09:23:29.868Z,14.70
2017-09-25T09:25:58.043Z,13.93
2017-09-25T09:28:26.665Z,12.98
2017-09-25T09:30:55.888Z,14.07
2017-09-25T09:33:25.452Z,12.85
2017-09-25T09:35:55.023Z,13.88
2017-09-25T09:38:25.379Z,14.50
2017-09-25T09:40:54.896Z,14.63
2017-09-25T09:43:23.953Z,15.10
2017-09-25T09:45:52.845Z,13.15
2017-09-25T09:48:21.294Z,13.05
2017-09-25T09:50:49.826Z,14.60
2017-09-25T09:53:18.023Z,14.73
2017-09-25T09:55:48.370Z,13.38
2017-09-25T09:58:17.643Z,14.15
2017-09-25T10:00:46.323Z,14.20
2017-09-25T10:03:15.897Z,14.75
2017-09-25T10:05:44.841Z,14.90
2017-09-25T10:08:14.063Z,15.77
2017-09-25T10:10:43.351Z,14.70
2017-09-25T10:13:11.759Z,14.23
2017-09-25T10:15:40.384Z,15.13
2017-09-25T10:18:09.802Z,14.38
2017-09-25T10:20:38.532Z,14.73
2017-09-25T10:23:07.029Z,14.32
2017-09-25T10:25:37.116Z,15.05
2017-09-25T10:28:05.942Z,15.23
2017-09-25T10:30:34.471Z,15.10
2017-09-25T10:33:03.583Z,14.98
2017-09-25T10:35:32.810Z,14.73
2017-09-25T10:38:02.438Z,16.15
2017-09-25T10:40:30.784Z,15.27
2017-09-25T10:43:00.063Z,13.70
2017-09-25T10:45:29.412Z,14.35
2017-09-25T10:47:58.454Z,14.80
2017-09-25T10:50:26.726Z,15.20
2017-09-25T10:52:55.029Z,15.68
2017-09-25T10:55:23.246Z,15.30
2017-09-25T10:57:51.495Z,16.40
2017-09-25T11:00:20.454Z,15.82
2017-09-25T11:02:49.126Z,16.05
2017-09-25T11:05:17.350Z,16.55
2017-09-25T11:07:46.321Z,16.10
2017-09-25T11:10:14.538Z,15.57
2017-09-25T11:12:42.769Z,14.10
2017-09-25T11:15:11.006Z,14.27
2017-09-25T11:17:39.220Z,14.73
2017-09-25T11:20:08.237Z,14.52
2017-09-25T11:22:36.466Z,15.10
2017-09-25T11:25:04.702Z,14.25
2017-09-25T11:27:32.904Z,14.40
2017-09-25T11:30:01.108Z,14.93
2017-09-25T11:32:30.079Z,13.73
2017-09-25T11:34:58.266Z,14.23
2017-09-25T11:37:26.496Z,14.90
2017-09-25T11:39:54.740Z,14.10
2017-09-25T11:42:23.722Z,14.00
2017-09-25T11:44:52.681Z,14.15
2017-09-25T11:47:21.137Z,12.90
2017-09-25T11:49:49.384Z,14.93
2017-09-25T11:52:17.596Z,14.00
2017-09-25T11:54:45.817Z,14.30
2017-09-25T11:59:49.455Z,13.85
2017-09-25T12:02:17.671Z,13.75
2017-09-25T12:04:45.897Z,14.00
2017-09-25T12:07:14.111Z,13.77
2017-09-25T12:09:42.294Z,13.85
2017-09-25T12:12:10.499Z,13.80
2017-09-25T12:14:39.479Z,14.07
2017-09-25T12:17:07.671Z,13.85
2017-09-25T12:19:36.640Z,12.73
2017-09-25T12:22:04.833Z,13.85
2017-09-25T12:24:33.818Z,12.77
2017-09-25T12:27:03.584Z,13.77
2017-09-25T12:29:31.780Z,14.63
2017-09-25T12:31:59.998Z,12.82
2017-09-25T12:34:28.220Z,14.13
2017-09-25T12:36:56.449Z,11.95
2017-09-25T12:39:24.692Z,13.35
2017-09-25T12:41:52.962Z,13.95
2017-09-25T12:44:21.180Z,14.07
2017-09-25T12:46:49.855Z,14.27
2017-09-25T12:49:18.078Z,12.30
2017-09-25T12:51:46.290Z,13.45
2017-09-25T12:54:15.260Z,12.45
2017-09-25T12:56:43.597Z,13.80
2017-09-25T12:59:12.792Z,13.70
2017-09-25T13:01:41.036Z,12.57
2017-09-25T13:04:09.270Z,12.90
2017-09-25T13:06:37.585Z,13.13
2017-09-25T13:11:41.629Z,12.70
2017-09-25T13:14:11.260Z,13.20
2017-09-25T13:16:40.021Z,13.95
2017-09-25T13:19:10.633Z,13.20
2017-09-25T13:21:38.868Z,13.10
2017-09-25T13:24:07.733Z,12.68
2017-09-25T13:26:36.417Z,12.30
2017-09-25T13:29:06.109Z,12.90
2017-09-25T13:31:35.254Z,11.85
2017-09-25T13:34:04.878Z,11.60
2017-09-25T13:36:34.603Z,11.52
2017-09-25T13:39:03.603Z,11.70
2017-09-25T13:41:32.995Z,12.50
2017-09-25T13:44:02.076Z,13.18
2017-09-25T13:46:33.772Z,12.15
2017-09-25T13:49:04.390Z,12.98
2017-09-25T13:51:34.331Z,12.05
2017-09-25T13:54:02.929Z,12.37
2017-09-25T13:56:32.114Z,13.27
2017-09-25T14:04:10.558Z,11.60
2017-09-25T14:06:40.041Z,11.75
2017-09-25T14:09:10.772Z,11.95
2017-09-25T14:11:45.257Z,10.82
2017-09-25T14:14:13.810Z,10.93
2017-09-25T14:16:42.089Z,10.30
2017-09-25T14:19:11.129Z,11.68
2017-09-25T14:21:40.507Z,10.75
2017-09-25T14:24:08.765Z,11.00
2017-09-25T14:26:40.482Z,12.13
2017-09-25T14:29:09.209Z,11.40
2017-09-25T14:31:38.737Z,11.85
2017-09-25T14:34:08.160Z,10.75
2017-09-25T14:36:36.660Z,9.77
2017-09-25T14:39:05.625Z,11.20
2017-09-25T14:41:33.946Z,10.95
2017-09-25T14:44:02.715Z,11.35
2017-09-25T14:46:31.602Z,10.80
2017-09-25T14:49:00.565Z,10.52
2017-09-25T14:51:29.565Z,10.15
2017-09-25T14:53:58.183Z,11.65
2017-09-25T14:56:28.749Z,11.02
2017-09-25T14:58:57.338Z,11.18
2017-09-25T15:01:25.606Z,10.95
2017-09-25T15:03:55.469Z,11.15
2017-09-25T15:06:25.051Z,11.25
2017-09-25T15:08:53.510Z,11.57
2017-09-25T15:11:21.889Z,10.75
2017-09-25T15:13:51.742Z,10.13
2017-09-25T15:16:21.296Z,10.88
2017-09-25T15:18:51.072Z,10.45
2017-09-25T15:21:20.609Z,10.85
2017-09-25T15:23:55.461Z,11.55
2017-09-25T15:26:26.754Z,9.55
2017-09-25T15:29:03.008Z,10.15
2017-09-25T15:31:31.526Z,10.90
2017-09-25T15:34:02.219Z,10.70
2017-09-25T15:36:32.926Z,10.63
2017-09-25T15:39:01.568Z,10.95
2017-09-25T15:41:30.419Z,11.25
2017-09-25T15:44:00.189Z,11.48
2017-09-25T15:46:29.813Z,11.10
2017-09-25T15:48:58.350Z,11.23
2017-09-25T15:51:26.912Z,11.52
2017-09-25T15:53:57.381Z,10.38
2017-09-25T15:56:28.057Z,10.60
2017-09-25T15:58:58.744Z,10.40
2017-09-25T16:01:27.713Z,10.77
2017-09-25T16:03:59.236Z,10.65
2017-09-25T16:06:28.337Z,9.63
2017-09-25T16:08:56.938Z,9.88
2017-09-25T16:11:27.356Z,10.48
2017-09-25T16:13:55.823Z,9.68
2017-09-25T16:16:26.439Z,10.43
2017-09-25T16:18:55.598Z,10.48
2017-09-25T16:21:24.073Z,9.70
2017-09-25T16:23:53.265Z,10.63
2017-09-25T16:26:21.549Z,9.40
2017-09-25T16:28:53.810Z,9.57
2017-09-25T16:31:22.094Z,9.65
2017-09-25T16:33:50.383Z,10.20
2017-09-25T16:36:18.681Z,9.38
2017-09-25T16:38:46.882Z,9.68
2017-09-25T16:41:15.148Z,9.40
2017-09-25T16:43:44.148Z,11.00
2017-09-25T16:46:12.460Z,9.55
2017-09-25T16:48:40.663Z,10.00
2017-09-25T16:51:08.909Z,9.85
2017-09-25T16:53:37.109Z,9.88
2017-09-25T16:56:05.320Z,9.55
2017-09-25T16:58:33.549Z,9.30
2017-09-25T17:01:02.203Z,9.10
2017-09-25T17:03:30.428Z,9.15
2017-09-25T17:05:59.432Z,10.38
2017-09-25T17:08:27.647Z,8.90
2017-09-25T17:10:55.861Z,9.07
2017-09-25T17:13:24.841Z,9.32
2017-09-25T17:15:53.095Z,9.95
2017-09-25T17:18:21.323Z,9.43
2017-09-25T17:20:50.335Z,9.20
2017-09-25T17:23:18.568Z,8.60
2017-09-25T17:25:46.892Z,8.73
2017-09-25T17:28:15.173Z,8.63
2017-09-25T17:30:43.402Z,9.52
2017-09-25T17:33:11.694Z,8.70
2017-09-25T17:35:39.978Z,8.85
2017-09-25T17:38:08.360Z,8.95
2017-09-25T17:40:36.589Z,9.38
2017-09-25T17:43:05.025Z,8.35
2017-09-25T17:45:33.440Z,8.43
2017-09-25T17:48:02.998Z,8.77
2017-09-25T17:50:32.108Z,9.05
2017-09-25T17:53:00.400Z,8.88
2017-09-25T17:55:29.561Z,9.98
2017-09-25T17:57:57.880Z,9.85
2017-09-25T18:00:26.984Z,9.25
2017-09-25T18:03:01.229Z,10.10
2017-09-25T18:05:34.508Z,10.02
2017-09-25T18:08:06.186Z,9.77
2017-09-25T18:10:44.447Z,9.48
2017-09-25T18:13:15.204Z,9.60
2017-09-25T18:15:46.598Z,9.40
2017-09-25T18:18:17.474Z,10.82
2017-09-25T18:20:48.003Z,9.65
2017-09-25T18:23:18.039Z,11.23
2017-09-25T18:26:00.997Z,10.40
2017-09-25T18:28:30.678Z,9.85
2017-09-25T19:01:25.443Z,10.77
2017-09-25T19:03:57.649Z,11.98
2017-09-25T19:06:26.568Z,11.60
2017-09-25T19:08:59.865Z,11.73
2017-09-25T19:11:31.644Z,11.18
2017-09-25T19:27:40.172Z,10.35
2017-09-25T19:30:11.796Z,11.30
2017-09-25T19:32:40.160Z,11.15
2017-09-25T19:35:08.459Z,11.93
2017-09-25T19:37:37.598Z,11.93
2017-09-25T19:40:06.616Z,12.70
2017-09-25T19:42:35.123Z,11.55
2017-09-25T19:45:03.449Z,11.43
2017-09-25T19:47:31.783Z,11.55
2017-09-25T19:50:02.619Z,11.77
2017-09-25T19:52:31.676Z,11.85
2017-09-25T19:55:05.405Z,11.10
2017-09-25T19:57:34.572Z,12.20
2017-09-25T20:00:02.852Z,11.55
2017-09-25T20:02:32.769Z,11.05
2017-09-25T20:05:01.145Z,12.10
2017-09-25T20:07:29.442Z,10.63
2017-09-25T20:09:57.666Z,11.48
2017-09-25T20:12:26.007Z,12.05
2017-09-25T20:14:58.349Z,11.15
2017-09-25T20:17:30.143Z,11.73
2017-09-25T20:19:58.489Z,10.95
2017-09-25T20:22:26.892Z,11.05
2017-09-25T20:24:55.943Z,11.77
2017-09-25T20:27:24.791Z,11.48
2017-09-25T20:29:53.108Z,11.65
2017-09-25T20:32:21.428Z,11.65
2017-09-25T20:34:50.440Z,10.40
2017-09-25T20:37:18.772Z,12.02
2017-09-25T20:39:47.106Z,11.82
2017-09-25T20:42:20.544Z,12.10
2017-09-25T20:44:48.765Z,12.57
2017-09-25T20:47:16.965Z,11.25
2017-09-25T20:49:45.230Z,12.25
2017-09-25T20:52:13.623Z,11.85
2017-09-25T20:54:41.978Z,11.15
2017-09-25T20:57:14.994Z,11.40
2017-09-25T20:59:43.301Z,11.10
2017-09-25T21:02:11.534Z,12.43
2017-09-25T21:04:39.782Z,11.02
2017-09-25T21:07:08.149Z,11.90
2017-09-25T21:09:36.400Z,11.50
2017-09-25T21:12:04.613Z,11.35
2017-09-25T21:14:32.859Z,10.82
2017-09-25T21:17:01.841Z,11.55
2017-09-25T21:19:30.143Z,12.05
2017-09-25T21:24:37.263Z,11.45
2017-09-25T21:27:05.788Z,12.25
2017-09-25T21:29:34.095Z,11.07
2017-09-25T21:32:02.299Z,11.35
2017-09-25T21:34:31.664Z,10.82
2017-09-25T21:37:00.861Z,11.27
2017-09-25T21:39:30.265Z,11.60
2017-09-25T21:41:59.828Z,11.05
2017-09-25T21:44:32.390Z,11.02
2017-09-25T22:05:04.483Z,9.63
2017-09-25T22:17:10.586Z,9.70
2017-09-25T22:19:57.058Z,9.32
2017-09-25T22:23:00.873Z,10.07
2017-09-25T22:25:48.940Z,9.73
2017-09-25T22:34:46.256Z,9.35
2017-09-25T22:49:11.907Z,9.93
2017-09-25T22:51:47.022Z,9.52
2017-09-25T22:54:20.118Z,9.57
2017-09-25T22:56:52.982Z,8.98
2017-09-25T22:59:25.530Z,9.73
2017-09-25T23:02:05.960Z,9.15
2017-09-25T23:04:44.015Z,9.15
2017-09-25T23:07:12.429Z,10.05
2017-09-25T23:09:48.246Z,8.25
2017-09-25T23:12:20.254Z,9.30
2017-09-25T23:14:50.523Z,10.00
2017-09-25T23:17:19.305Z,8.68
2017-09-25T23:19:48.733Z,8.25
2017-09-25T23:22:22.540Z,9.38
2017-09-25T23:24:52.716Z,8.63
2017-09-25T23:27:23.595Z,9.15
2017-09-25T23:32:57.601Z,9.27
2017-09-25T23:35:26.375Z,8.60
2017-09-25T23:37:57.362Z,9.32
2017-09-25T23:40:27.640Z,8.50
2017-09-25T23:46:17.694Z,9.20
2017-09-25T23:51:20.665Z,8.93
2017-09-25T23:53:52.291Z,8.80
2017-09-25T23:56:23.937Z,8.18
2017-09-25T23:58:54.812Z,8.95
